createdAt,value
2022-10-23T00:01:45.425Z,4.60
2022-10-23T00:04:16.943Z,4.70
2022-10-23T00:06:45.144Z,4.83
2022-10-23T00:09:16.087Z,4.53
2022-10-23T00:11:44.712Z,4.63
2022-10-23T00:14:12.463Z,4.30
2022-10-23T00:16:40.189Z,5.20
2022-10-23T00:19:08.259Z,4.30
2022-10-23T00:21:37.335Z,5.00
2022-10-23T00:24:06.195Z,4.57
2022-10-23T00:26:33.914Z,4.37
2022-10-23T00:29:01.709Z,4.33
2022-10-23T00:31:29.388Z,4.80
2022-10-23T00:33:57.176Z,4.93
2022-10-23T00:36:24.891Z,4.50
2022-10-23T00:38:53.998Z,4.57
2022-10-23T00:41:24.245Z,4.43
2022-10-23T00:44:03.765Z,4.43
2022-10-23T00:46:32.844Z,4.63
2022-10-23T00:49:01.193Z,4.90
2022-10-23T00:51:31.978Z,4.63
2022-10-23T00:54:22.841Z,4.43
2022-10-23T00:56:51.487Z,5.20
2022-10-23T00:59:19.302Z,4.90
2022-10-23T01:01:47.333Z,4.77
2022-10-23T01:04:15.385Z,4.90
2022-10-23T01:06:54.063Z,5.20
2022-10-23T01:09:32.028Z,4.87
2022-10-23T01:12:09.967Z,5.33
2022-10-23T01:14:45.371Z,4.40
2022-10-23T01:17:19.240Z,5.53
2022-10-23T01:19:57.487Z,4.78
2022-10-23T01:22:55.589Z,5.83
2022-10-23T01:25:35.017Z,5.70
2022-10-23T01:28:10.260Z,5.60
2022-10-23T01:33:18.499Z,5.67
2022-10-23T01:35:50.240Z,5.70
2022-10-23T01:38:21.577Z,6.20
2022-10-23T01:40:55.747Z,7.40
2022-10-23T01:43:30.740Z,5.80
2022-10-23T01:46:02.300Z,6.33
2022-10-23T01:48:31.210Z,5.87
2022-10-23T01:51:02.179Z,6.37
2022-10-23T01:53:34.175Z,5.83
2022-10-23T01:56:06.607Z,5.97
2022-10-23T01:58:37.803Z,6.20
2022-10-23T02:01:08.004Z,6.77
2022-10-23T02:03:38.547Z,6.20
2022-10-23T02:06:06.699Z,7.47
2022-10-23T02:08:34.728Z,5.70
2022-10-23T02:11:07.907Z,6.60
2022-10-23T02:13:43.679Z,5.90
2022-10-23T02:16:22.783Z,6.30
2022-10-23T02:18:56.936Z,6.13
2022-10-23T02:21:30.315Z,6.40
2022-10-23T02:24:03.386Z,5.53
2022-10-23T02:26:39.306Z,6.90
2022-10-23T02:29:11.135Z,6.80
2022-10-23T02:31:39.340Z,6.07
2022-10-23T02:34:07.264Z,5.97
2022-10-23T02:36:35.050Z,7.43
2022-10-23T02:39:02.790Z,7.67
2022-10-23T02:41:38.832Z,6.90
2022-10-23T02:44:18.357Z,7.13
2022-10-23T02:46:54.260Z,7.47
2022-10-23T02:49:27.730Z,7.97
2022-10-23T02:52:06.119Z,7.90
2022-10-23T02:54:54.347Z,7.67
2022-10-23T02:57:28.408Z,7.60
2022-10-23T03:00:03.592Z,7.50
2022-10-23T03:02:36.938Z,6.90
2022-10-23T03:05:07.759Z,7.70
2022-10-23T03:07:35.986Z,7.60
2022-10-23T03:10:04.152Z,7.30
2022-10-23T03:12:31.872Z,7.47
2022-10-23T03:15:00.905Z,6.73
2022-10-23T03:17:28.679Z,7.10
2022-10-23T03:19:56.353Z,7.43
2022-10-23T03:22:24.055Z,7.73
2022-10-23T03:24:51.769Z,8.03
2022-10-23T03:27:19.785Z,8.27
2022-10-23T03:29:47.498Z,7.83
2022-10-23T03:32:16.549Z,7.67
2022-10-23T03:34:44.522Z,7.30
2022-10-23T03:37:12.265Z,7.40
2022-10-23T03:39:39.947Z,6.90
2022-10-23T03:42:07.674Z,7.23
2022-10-23T03:44:35.397Z,7.37
2022-10-23T03:47:03.231Z,7.67
2022-10-23T03:49:32.294Z,8.90
2022-10-23T03:52:00.022Z,7.23
2022-10-23T03:54:29.740Z,7.67
2022-10-23T03:56:57.988Z,8.03
2022-10-23T03:59:25.786Z,7.03
2022-10-23T04:01:53.572Z,6.67
2022-10-23T04:04:21.423Z,7.17
2022-10-23T04:06:50.440Z,8.07
2022-10-23T04:09:18.427Z,6.50
2022-10-23T04:11:46.154Z,6.57
2022-10-23T04:14:14.759Z,6.73
2022-10-23T04:16:42.531Z,7.17
2022-10-23T04:19:10.238Z,6.63
2022-10-23T04:21:38.111Z,6.33
2022-10-23T04:24:07.866Z,7.17
2022-10-23T04:26:35.845Z,7.73
2022-10-23T04:29:03.604Z,7.23
2022-10-23T04:31:31.333Z,8.10
2022-10-23T04:33:59.088Z,5.33
2022-10-23T04:36:27.046Z,8.40
2022-10-23T04:38:54.735Z,7.90
2022-10-23T04:41:23.890Z,8.60
2022-10-23T04:43:51.585Z,9.23
2022-10-23T04:46:19.401Z,8.03
2022-10-23T04:48:47.161Z,8.17
2022-10-23T04:51:14.881Z,6.67
2022-10-23T04:53:42.618Z,7.20
2022-10-23T04:56:14.789Z,7.40
2022-10-23T04:58:43.901Z,7.17
2022-10-23T05:01:11.934Z,7.00
2022-10-23T05:03:39.820Z,5.57
2022-10-23T05:06:08.033Z,5.20
2022-10-23T05:08:36.404Z,4.90
2022-10-23T05:11:04.317Z,5.73
2022-10-23T05:13:31.992Z,5.63
2022-10-23T05:16:01.059Z,5.93
2022-10-23T05:18:33.537Z,5.23
2022-10-23T05:21:06.818Z,6.53
2022-10-23T05:23:37.350Z,8.57
2022-10-23T05:26:05.803Z,6.97
2022-10-23T05:28:33.527Z,5.93
2022-10-23T05:31:05.537Z,5.40
2022-10-23T05:33:33.955Z,7.10
2022-10-23T05:36:02.103Z,6.47
2022-10-23T05:38:33.550Z,5.97
2022-10-23T05:41:01.289Z,5.97
2022-10-23T05:43:31.159Z,5.60
2022-10-23T05:45:59.296Z,5.80
2022-10-23T05:48:34.624Z,4.50
2022-10-23T05:51:07.623Z,5.60
2022-10-23T05:53:38.706Z,4.00
2022-10-23T05:56:10.260Z,5.40
2022-10-23T05:58:37.985Z,5.50
2022-10-23T06:01:07.723Z,5.03
2022-10-23T06:03:37.570Z,4.80
2022-10-23T06:06:05.937Z,4.83
2022-10-23T06:08:34.745Z,4.23
2022-10-23T06:11:07.524Z,4.10
2022-10-23T06:13:35.255Z,3.70
2022-10-23T06:16:10.213Z,4.07
2022-10-23T06:18:39.245Z,4.50
2022-10-23T06:21:07.571Z,4.67
2022-10-23T06:23:37.169Z,4.83
2022-10-23T06:26:06.087Z,5.27
2022-10-23T06:28:33.919Z,4.40
2022-10-23T06:31:05.622Z,4.17
2022-10-23T06:33:33.398Z,3.60
2022-10-23T06:36:03.609Z,4.10
2022-10-23T06:38:36.552Z,3.90
2022-10-23T06:41:05.611Z,5.17
2022-10-23T06:43:33.424Z,5.90
2022-10-23T06:46:02.706Z,5.03
2022-10-23T06:48:30.505Z,5.83
2022-10-23T06:50:58.847Z,4.40
2022-10-23T06:53:27.925Z,4.90
2022-10-23T06:56:00.629Z,5.23
2022-10-23T06:58:28.388Z,5.40
2022-10-23T07:00:56.461Z,5.70
2022-10-23T07:03:24.210Z,4.37
2022-10-23T07:05:51.916Z,4.63
2022-10-23T07:08:19.606Z,4.60
2022-10-23T07:10:48.902Z,4.40
2022-10-23T07:13:16.645Z,4.73
2022-10-23T07:15:44.830Z,4.83
2022-10-23T07:18:14.648Z,4.87
2022-10-23T07:20:42.888Z,4.83
2022-10-23T07:23:12.581Z,5.53
2022-10-23T07:25:40.260Z,5.23
2022-10-23T07:28:09.303Z,6.40
2022-10-23T07:30:36.982Z,9.30
2022-10-23T07:33:04.873Z,7.93
2022-10-23T07:35:35.573Z,7.40
2022-10-23T07:38:06.253Z,7.40
2022-10-23T07:40:34.068Z,7.40
2022-10-23T07:43:01.787Z,7.43
2022-10-23T07:45:30.822Z,7.30
2022-10-23T07:47:58.531Z,8.90
2022-10-23T07:50:26.273Z,7.60
2022-10-23T07:52:54.022Z,6.73
2022-10-23T07:55:21.729Z,6.30
2022-10-23T07:57:49.464Z,6.18
2022-10-23T08:00:17.380Z,5.82
2022-10-23T08:02:46.431Z,6.38
2022-10-23T08:05:14.112Z,6.80
2022-10-23T08:07:42.087Z,5.93
2022-10-23T08:10:10.330Z,5.73
2022-10-23T08:12:38.725Z,5.68
2022-10-23T08:15:07.233Z,5.40
2022-10-23T08:17:35.098Z,5.80
2022-10-23T08:20:04.516Z,5.43
2022-10-23T08:22:32.249Z,5.70
2022-10-23T08:24:59.922Z,5.25
2022-10-23T08:27:27.626Z,5.53
2022-10-23T08:29:55.306Z,5.38
2022-10-23T08:32:23.010Z,4.93
2022-10-23T08:34:50.709Z,4.80
2022-10-23T08:37:19.761Z,4.22
2022-10-23T08:39:50.152Z,4.43
2022-10-23T08:42:22.326Z,4.30
2022-10-23T08:44:59.209Z,3.70
2022-10-23T08:47:32.917Z,3.80
2022-10-23T08:50:04.360Z,3.78
2022-10-23T08:52:40.576Z,3.83
2022-10-23T08:55:16.829Z,3.97
2022-10-23T08:57:50.577Z,4.13
2022-10-23T09:00:19.200Z,3.80
2022-10-23T09:02:48.927Z,3.40
2022-10-23T09:05:20.635Z,3.70
2022-10-23T09:08:05.640Z,3.67
2022-10-23T09:10:51.397Z,3.13
2022-10-23T09:13:35.782Z,3.78
2022-10-23T09:16:11.050Z,3.33
2022-10-23T09:18:42.146Z,3.20
2022-10-23T09:21:10.577Z,3.28
2022-10-23T09:23:39.843Z,3.30
2022-10-23T09:26:15.020Z,3.17
2022-10-23T09:28:47.754Z,3.03
2022-10-23T09:31:16.745Z,3.00
2022-10-23T09:33:55.640Z,2.90
2022-10-23T09:36:25.898Z,2.65
2022-10-23T09:38:56.316Z,2.30
2022-10-23T09:41:28.425Z,2.92
2022-10-23T09:44:12.272Z,3.03
2022-10-23T09:46:40.929Z,2.53
2022-10-23T09:49:17.898Z,2.55
2022-10-23T09:51:53.719Z,2.50
2022-10-23T09:54:24.812Z,2.85
2022-10-23T09:56:55.535Z,2.83
2022-10-23T09:59:26.666Z,2.42
2022-10-23T10:01:56.588Z,2.80
2022-10-23T10:04:35.413Z,2.35
2022-10-23T10:07:05.847Z,2.42
2022-10-23T10:09:35.320Z,2.30
2022-10-23T10:12:19.509Z,2.70
2022-10-23T10:14:58.712Z,2.55
2022-10-23T10:17:35.971Z,2.35
2022-10-23T10:20:28.677Z,2.13
2022-10-23T10:23:01.684Z,2.17
2022-10-23T10:25:37.547Z,2.00
2022-10-23T10:28:20.813Z,2.00
2022-10-23T10:30:57.866Z,2.38
2022-10-23T10:33:36.630Z,2.00
2022-10-23T10:36:14.316Z,2.00
2022-10-23T10:38:46.351Z,2.03
2022-10-23T10:41:35.477Z,1.90
2022-10-23T10:44:15.406Z,2.17
2022-10-23T10:46:52.540Z,2.13
2022-10-23T10:49:25.928Z,1.95
2022-10-23T10:52:01.297Z,2.03
2022-10-23T10:54:40.840Z,2.60
2022-10-23T10:57:21.649Z,3.70
2022-10-23T10:59:54.187Z,2.50
2022-10-23T11:02:28.739Z,2.17
2022-10-23T11:05:06.584Z,1.48
2022-10-23T11:07:40.405Z,1.70
2022-10-23T11:10:17.164Z,1.90
2022-10-23T11:12:48.230Z,1.85
2022-10-23T11:15:17.521Z,1.52
2022-10-23T11:17:49.319Z,1.42
2022-10-23T11:20:38.856Z,1.92
2022-10-23T11:23:17.828Z,2.20
2022-10-23T11:25:58.770Z,2.20
2022-10-23T11:28:46.391Z,2.00
2022-10-23T11:31:23.711Z,1.95
2022-10-23T11:34:13.565Z,2.00
2022-10-23T11:36:46.018Z,2.00
2022-10-23T11:39:24.913Z,2.10
2022-10-23T11:41:55.369Z,2.20
2022-10-23T11:44:39.452Z,2.85
2022-10-23T11:47:27.071Z,2.00
2022-10-23T11:50:13.676Z,1.98
2022-10-23T11:53:09.358Z,2.47
2022-10-23T11:55:42.078Z,1.80
2022-10-23T11:58:23.391Z,1.98
2022-10-23T12:00:57.828Z,1.70
2022-10-23T12:03:31.093Z,1.80
2022-10-23T12:06:02.900Z,1.88
2022-10-23T12:08:33.327Z,1.50
2022-10-23T12:11:01.386Z,1.60
2022-10-23T12:13:45.405Z,1.55
2022-10-23T12:16:15.136Z,1.95
2022-10-23T12:18:50.910Z,1.73
2022-10-23T12:21:22.456Z,2.05
2022-10-23T12:24:05.566Z,2.08
2022-10-23T12:26:50.763Z,2.40
2022-10-23T12:29:32.992Z,2.28
2022-10-23T12:32:14.844Z,2.40
2022-10-23T12:34:52.440Z,2.20
2022-10-23T12:37:36.424Z,2.08
2022-10-23T12:40:09.242Z,2.30
2022-10-23T12:42:38.052Z,2.13
2022-10-23T12:45:18.356Z,2.45
2022-10-23T12:47:48.839Z,2.00
2022-10-23T12:50:20.559Z,2.28
2022-10-23T12:52:56.473Z,2.05
2022-10-23T12:55:25.833Z,2.35
2022-10-23T12:57:55.111Z,2.13
2022-10-23T13:00:24.985Z,2.67
2022-10-23T13:03:02.340Z,2.20
2022-10-23T13:05:31.243Z,2.22
2022-10-23T13:08:00.408Z,2.22
2022-10-23T13:10:28.422Z,2.53
2022-10-23T13:12:59.892Z,2.35
2022-10-23T13:15:38.447Z,2.55
2022-10-23T13:18:09.950Z,2.40
2022-10-23T13:20:41.928Z,2.05
2022-10-23T13:23:13.280Z,2.17
2022-10-23T13:25:41.500Z,1.90
2022-10-23T13:28:15.988Z,1.70
2022-10-23T13:30:46.269Z,2.28
2022-10-23T13:33:24.238Z,2.00
2022-10-23T13:35:58.942Z,2.17
2022-10-23T13:38:31.521Z,2.20
2022-10-23T13:41:00.497Z,1.80
2022-10-23T13:43:30.626Z,1.83
2022-10-23T13:45:58.906Z,1.52
2022-10-23T13:48:28.388Z,1.98
2022-10-23T13:51:02.413Z,1.60
2022-10-23T13:53:30.479Z,2.28
2022-10-23T13:55:58.838Z,1.92
2022-10-23T13:58:26.635Z,2.20
2022-10-23T14:00:54.586Z,2.17
2022-10-23T14:03:24.322Z,2.83
2022-10-23T14:05:53.733Z,2.55
2022-10-23T14:08:21.503Z,2.28
2022-10-23T14:10:49.193Z,2.80
2022-10-23T14:13:18.585Z,2.92
2022-10-23T14:15:53.408Z,3.00
2022-10-23T14:18:21.091Z,2.72
2022-10-23T14:20:48.943Z,2.60
2022-10-23T14:23:17.952Z,3.00
2022-10-23T14:25:45.635Z,2.45
2022-10-23T14:28:13.325Z,2.10
2022-10-23T14:30:40.995Z,2.47
2022-10-23T14:33:08.725Z,2.42
2022-10-23T14:35:39.874Z,2.20
2022-10-23T14:38:07.634Z,2.05
2022-10-23T14:40:39.568Z,2.00
2022-10-23T14:43:07.578Z,2.13
2022-10-23T14:45:35.463Z,2.20
2022-10-23T14:48:03.129Z,2.17
2022-10-23T14:50:32.114Z,2.20
2022-10-23T14:55:28.560Z,2.50
2022-10-23T14:57:57.744Z,1.70
2022-10-23T15:00:25.541Z,2.20
2022-10-23T15:02:53.316Z,2.33
2022-10-23T15:05:21.256Z,1.92
2022-10-23T15:07:49.172Z,2.03
2022-10-23T15:12:49.593Z,2.08
2022-10-23T15:15:18.884Z,2.10
2022-10-23T15:17:46.559Z,2.25
2022-10-23T15:20:14.249Z,2.33
2022-10-23T15:22:42.142Z,2.38
2022-10-23T15:25:12.209Z,2.22
2022-10-23T15:27:43.467Z,2.25
2022-10-23T15:30:12.251Z,2.08
2022-10-23T15:32:41.375Z,1.90
2022-10-23T15:35:09.632Z,2.10
2022-10-23T15:37:37.339Z,2.05
2022-10-23T15:40:05.422Z,2.20
2022-10-23T15:42:33.444Z,2.70
2022-10-23T15:45:01.161Z,2.92
2022-10-23T15:47:28.843Z,3.25
2022-10-23T15:49:57.862Z,4.15
2022-10-23T15:52:25.546Z,4.35
2022-10-23T15:54:53.241Z,4.82
2022-10-23T15:57:20.933Z,9.00
2022-10-23T15:59:48.850Z,27.65
2022-10-23T16:02:16.711Z,48.42
2022-10-23T16:04:44.514Z,46.65
2022-10-23T16:07:13.506Z,33.65
2022-10-23T16:09:41.218Z,22.05
2022-10-23T16:12:09.468Z,17.80
2022-10-23T16:14:37.214Z,11.93
2022-10-23T16:17:05.001Z,7.55
2022-10-23T16:19:32.722Z,6.68
2022-10-23T16:22:00.564Z,5.25
2022-10-23T16:24:29.866Z,4.60
2022-10-23T16:26:57.734Z,3.50
2022-10-23T16:29:26.590Z,3.55
2022-10-23T16:31:55.022Z,3.75
2022-10-23T16:34:22.906Z,3.22
2022-10-23T16:36:50.613Z,3.72
2022-10-23T16:39:20.235Z,3.35
2022-10-23T16:41:49.254Z,3.30
2022-10-23T16:44:16.999Z,3.47
2022-10-23T16:46:44.695Z,3.20
2022-10-23T16:49:13.949Z,3.30
2022-10-23T16:51:41.689Z,3.53
2022-10-23T16:54:10.566Z,3.53
2022-10-23T16:56:38.302Z,3.60
2022-10-23T16:59:07.537Z,3.60
2022-10-23T17:01:35.448Z,3.42
2022-10-23T17:04:03.391Z,3.67
2022-10-23T17:06:34.050Z,3.28
2022-10-23T17:09:02.805Z,3.67
2022-10-23T17:11:32.615Z,3.55
2022-10-23T17:14:02.855Z,3.28
2022-10-23T17:16:34.826Z,3.42
2022-10-23T17:19:04.300Z,3.70
2022-10-23T17:21:38.370Z,3.60
2022-10-23T17:24:07.298Z,3.88
2022-10-23T17:26:35.703Z,4.00
2022-10-23T17:29:06.156Z,3.90
2022-10-23T17:31:37.850Z,3.17
2022-10-23T17:34:09.231Z,3.50
2022-10-23T17:36:39.969Z,3.33
2022-10-23T17:39:09.256Z,3.63
2022-10-23T17:41:37.265Z,3.55
2022-10-23T17:44:05.542Z,3.38
2022-10-23T17:46:34.593Z,3.17
2022-10-23T17:49:04.703Z,4.32
2022-10-23T17:51:34.751Z,3.42
2022-10-23T17:54:04.916Z,3.10
2022-10-23T17:56:36.533Z,3.22
2022-10-23T17:59:07.176Z,3.25
2022-10-23T18:01:36.562Z,3.30
2022-10-23T18:04:06.573Z,3.20
2022-10-23T18:06:36.506Z,3.72
2022-10-23T18:09:06.621Z,3.70
2022-10-23T18:11:36.520Z,3.45
2022-10-23T18:14:06.032Z,3.30
2022-10-23T18:16:37.118Z,3.95
2022-10-23T18:19:05.575Z,3.70
2022-10-23T18:21:34.765Z,3.30
2022-10-23T18:24:03.437Z,3.40
2022-10-23T18:26:34.895Z,3.45
2022-10-23T18:29:04.253Z,3.50
2022-10-23T18:31:32.106Z,3.47
2022-10-23T18:34:04.163Z,3.80
2022-10-23T18:36:34.676Z,3.50
2022-10-23T18:39:02.993Z,3.85
2022-10-23T18:41:33.909Z,3.65
2022-10-23T18:44:01.879Z,3.53
2022-10-23T18:46:29.909Z,3.25
2022-10-23T18:48:57.707Z,3.60
2022-10-23T18:51:27.973Z,3.60
2022-10-23T18:53:56.285Z,3.92
2022-10-23T18:56:26.774Z,3.67
2022-10-23T18:58:56.092Z,3.60
2022-10-23T19:01:26.885Z,3.60
2022-10-23T19:06:30.289Z,3.80
2022-10-23T19:08:58.776Z,3.50
2022-10-23T19:11:27.925Z,4.55
2022-10-23T19:13:56.392Z,3.63
2022-10-23T19:16:28.431Z,4.18
2022-10-23T19:19:00.387Z,4.10
2022-10-23T19:21:34.189Z,3.95
2022-10-23T19:24:05.930Z,3.58
2022-10-23T19:26:36.662Z,3.78
2022-10-23T19:29:07.026Z,4.03
2022-10-23T19:31:34.945Z,4.40
2022-10-23T19:34:02.694Z,4.40
2022-10-23T19:36:33.007Z,3.85
2022-10-23T19:39:00.809Z,3.95
2022-10-23T19:41:30.605Z,4.07
2022-10-23T19:43:58.427Z,4.05
2022-10-23T19:46:27.070Z,3.97
2022-10-23T19:48:54.816Z,4.30
2022-10-23T19:51:22.517Z,4.07
2022-10-23T19:56:20.346Z,4.10
2022-10-23T19:58:48.382Z,3.97
2022-10-23T20:01:19.363Z,4.32
2022-10-23T20:03:48.728Z,4.22
2022-10-23T20:06:19.441Z,4.35
2022-10-23T20:08:47.895Z,4.53
2022-10-23T20:11:20.514Z,4.53
2022-10-23T20:13:49.241Z,4.78
2022-10-23T20:16:20.214Z,4.10
2022-10-23T20:18:48.118Z,4.93
2022-10-23T20:21:15.887Z,4.28
2022-10-23T20:23:43.823Z,4.53
2022-10-23T20:26:15.951Z,4.90
2022-10-23T20:28:47.100Z,5.10
2022-10-23T20:31:16.722Z,4.30
2022-10-23T20:33:44.699Z,4.68
2022-10-23T20:36:24.054Z,4.60
2022-10-23T20:38:52.137Z,4.95
2022-10-23T20:41:21.331Z,5.15
2022-10-23T20:43:50.754Z,4.32
2022-10-23T20:46:18.503Z,4.93
2022-10-23T20:48:46.467Z,4.72
2022-10-23T20:51:16.835Z,4.75
2022-10-23T20:53:47.753Z,5.60
2022-10-23T20:56:19.484Z,5.28
2022-10-23T20:58:47.733Z,5.20
2022-10-23T21:01:20.086Z,5.32
2022-10-23T21:03:51.195Z,5.53
2022-10-23T21:06:20.655Z,5.53
2022-10-23T21:08:48.530Z,5.85
2022-10-23T21:11:18.173Z,5.72
2022-10-23T21:13:46.386Z,5.65
2022-10-23T21:16:17.112Z,4.85
2022-10-23T21:18:46.678Z,5.82
2022-10-23T21:21:17.062Z,5.63
2022-10-23T21:23:44.920Z,5.80
2022-10-23T21:26:12.821Z,5.82
2022-10-23T21:28:47.280Z,5.50
2022-10-23T21:31:25.793Z,5.75
2022-10-23T21:33:54.103Z,5.43
2022-10-23T21:36:23.961Z,7.90
2022-10-23T21:38:53.853Z,6.20
2022-10-23T21:41:23.637Z,6.05
2022-10-23T21:43:54.399Z,6.57
2022-10-23T21:46:22.804Z,5.82
2022-10-23T21:48:52.073Z,6.75
2022-10-23T21:51:25.211Z,6.05
2022-10-23T21:53:54.544Z,6.10
2022-10-23T21:56:29.335Z,6.57
2022-10-23T21:58:57.562Z,6.10
2022-10-23T22:01:25.633Z,6.07
2022-10-23T22:03:55.158Z,6.78
2022-10-23T22:06:24.945Z,6.40
2022-10-23T22:08:53.240Z,6.40
2022-10-23T22:11:21.060Z,6.10
2022-10-23T22:13:49.236Z,6.00
2022-10-23T22:16:17.717Z,6.50
2022-10-23T22:18:45.847Z,7.25
2022-10-23T22:21:16.701Z,7.22
2022-10-23T22:23:44.745Z,6.88
2022-10-23T22:26:21.616Z,6.90
2022-10-23T22:28:49.482Z,6.93
2022-10-23T22:31:18.321Z,7.68
2022-10-23T22:33:46.208Z,7.63
2022-10-23T22:36:15.747Z,7.18
2022-10-23T22:38:44.235Z,7.57
2022-10-23T22:41:12.511Z,7.03
2022-10-23T22:43:40.209Z,7.38
2022-10-23T22:46:10.107Z,7.82
2022-10-23T22:48:38.021Z,7.70
2022-10-23T22:51:08.923Z,7.65
2022-10-23T22:53:38.525Z,7.55
2022-10-23T22:56:08.276Z,7.40
2022-10-23T22:58:36.213Z,7.20
2022-10-23T23:01:07.855Z,7.18
2022-10-23T23:03:36.708Z,6.85
2022-10-23T23:06:05.531Z,6.90
2022-10-23T23:08:33.825Z,6.82
2022-10-23T23:11:03.436Z,6.82
2022-10-23T23:13:31.182Z,6.38
2022-10-23T23:15:59.224Z,5.97
2022-10-23T23:18:27.816Z,6.43
2022-10-23T23:20:55.528Z,6.65
2022-10-23T23:23:23.241Z,6.07
2022-10-23T23:25:51.437Z,5.78
2022-10-23T23:28:21.753Z,6.20
2022-10-23T23:30:49.795Z,6.68
2022-10-23T23:33:19.920Z,6.35
2022-10-23T23:35:48.527Z,7.05
2022-10-23T23:38:16.405Z,6.70
2022-10-23T23:40:54.205Z,6.45
2022-10-23T23:43:23.310Z,6.60
2022-10-23T23:45:51.022Z,6.25
2022-10-23T23:48:18.802Z,5.85
2022-10-23T23:50:46.485Z,6.30
2022-10-23T23:53:14.198Z,5.90
2022-10-23T23:55:44.946Z,6.00
2022-10-23T23:58:13.303Z,5.75
